Latest Weather Observations for Christmas Creek

IDW60801

Issued at 4:05 pm WST Thursday 21 August 2014 (issued every 30 minutes, with the page automatically refreshed every 10 minutes)

About weather observations | Map of weather stations | Latest weather observations for WA | Other Formats
Station Details ID: 505049 Name: CHRISTMAS CREEK Lat: -22.36 Lon: 119.65 Height: 437.21 m
Data from the previous 72 hours. | See also: Recent months for locations in Western Australia
Date/Time
WST
Temp
°C
App
Temp
°C
Dew
Point
Rel
Hum
%
Delta-T
°C
Wind Press
QNH
hPa
Press
MSL
hPa
Rain
since 9 am
mm
Dir
 
Spd
km/h
Gust
km/h
Spd
kts
Gust
kts
21/04:00pm 27.8 20.9 -2.7 13 13.9 NW 24 37 13 20 1015.4 1014.4 0.0
21/03:30pm 28.1 22.0 -2.7 13 14.1 NNW 20 33 11 18 1015.2 1014.2 0.0
21/03:00pm 28.0 22.1 -2.4 13 14.0 N 19 28 10 15 1015.2 1014.2 0.0
21/02:30pm 28.5 21.6 -2.9 12 14.4 NW 24 37 13 20 1015.3 1014.3 0.0
21/02:00pm 28.4 22.4 -3.0 12 14.3 NNW 19 28 10 15 1015.5 1014.5 0.0
21/01:30pm 27.5 22.6 -3.7 12 14.0 N 13 19 7 10 1015.8 1014.7 0.0
21/01:00pm 27.7 21.0 -4.2 12 14.2 N 22 32 12 17 1016.1 1015.0 0.0
21/12:30pm 26.9 22.0 -3.5 13 13.6 N 13 22 7 12 1016.5 1015.5 0.0
21/12:00pm 27.1 21.1 -3.4 13 13.7 N 19 28 10 15 1016.9 1015.9 0.0
21/11:30am 26.0 22.5 -2.5 15 12.9 ENE 6 13 3 7 1017.4 1016.4 0.0
21/11:00am 25.2 21.5 -2.6 16 12.5 ESE 7 13 4 7 1017.8 1016.8 0.0
21/10:30am 24.3 20.5 -0.4 19 11.5 SSE 9 17 5 9 1018.4 1017.3 0.0
21/10:00am 23.7 19.9 -0.4 20 11.1 S 9 15 5 8 1018.7 1017.7 0.0
21/09:30am 22.3 18.2 -0.1 22 10.3 SSW 11 17 6 9 1018.8 1017.8 0.0
21/09:00am 20.3 17.2 0.1 26 9.2 SSE 6 9 3 5 1018.8 1017.8 -
21/08:30am 18.2 15.4 -0.1 29 8.1 SSW 4 6 2 3 1018.7 1017.7 -
21/08:00am 16.3 13.6 0.3 33 7.0 W 4 6 2 3 1018.3 1017.2 -
21/07:30am 13.5 11.4 1.5 44 5.3 SSE 2 15 1 8 1018.1 1017.0 -
21/07:00am 12.3 10.0 0.4 44 5.1 SSE 2 4 1 2 1017.6 1016.6 -
21/06:30am 11.5 9.1 -0.2 44 4.9 SSW 2 4 1 2 1017.3 1016.3 -
21/06:00am 12.3 9.5 -0.5 41 5.3 SSE 4 9 2 5 1017.1 1016.1 -
21/05:30am 14.5 10.8 -0.3 36 6.3 WNW 9 11 5 6 1016.8 1015.8 -
21/05:00am 15.9 11.7 -0.6 32 7.1 W 11 13 6 7 1016.5 1015.5 -
21/04:30am 14.8 11.4 -0.5 35 6.5 WNW 7 11 4 6 1016.3 1015.2 -
21/04:00am 13.3 10.2 0.3 41 5.6 WNW 6 7 3 4 1016.3 1015.2 -
21/03:30am 13.4 10.3 0.3 40 5.6 NNW 6 9 3 5 1016.5 1015.5 -
21/03:00am 13.5 10.4 0.0 39 5.8 N 6 9 3 5 1016.5 1015.5 0.0
21/02:30am 13.7 10.0 0.1 39 5.8 N 9 13 5 7 1016.6 1015.6 -
21/02:00am 14.0 10.6 -0.5 37 6.1 NNW 7 11 4 6 1016.9 1015.9 -
21/01:30am 16.1 12.7 -0.8 31 7.3 WNW 7 11 4 6 1017.1 1016.1 -
21/01:00am 16.0 11.4 -0.7 32 7.2 N 13 17 7 9 1017.1 1016.1 -
21/12:30am 16.3 12.1 -0.7 31 7.3 N 11 15 6 8 1017.3 1016.3 -
21/12:00am 18.4 13.1 -0.5 28 8.3 NNW 17 20 9 11 1017.5 1016.5 -
 
Date/Time
WST
Temp
°C
App
Temp
°C
Dew
Point
Rel
Hum
%
Delta-T
°C
Wind Press
QNH
hPa
Press
MSL
hPa
Rain
since 9 am
mm
Dir
 
Spd
km/h
Gust
km/h
Spd
kts
Gust
kts
20/11:30pm 16.6 12.4 -0.7 31 7.5 N 11 13 6 7 1017.6 1016.6 -
20/11:00pm 18.2 12.8 -1.4 26 8.5 N 17 20 9 11 1017.7 1016.7 -
20/10:30pm 17.4 12.8 -0.8 29 7.9 N 13 17 7 9 1017.6 1016.6 -
20/10:00pm 17.9 13.3 -1.1 27 8.2 N 13 15 7 8 1017.5 1016.5 -
20/09:30pm 17.7 13.1 -0.8 28 8.1 N 13 15 7 8 1017.7 1016.7 -
20/09:00pm 18.7 13.7 -0.9 26 8.6 N 15 17 8 9 1017.7 1016.7 0.0
20/08:30pm 19.3 14.7 -1.3 25 9.0 N 13 15 7 8 1017.7 1016.7 -
20/08:00pm 19.5 14.5 -1.1 25 9.1 N 15 19 8 10 1017.5 1016.5 -
20/07:30pm 20.4 15.4 -1.1 23 9.5 NNW 15 15 8 8 1017.0 1016.0 -
20/07:00pm 20.8 16.6 -0.8 23 9.7 NNW 11 13 6 7 1016.8 1015.8 -
20/06:30pm 22.4 18.2 -1.1 21 10.6 NW 11 13 6 7 1016.4 1015.3 -
20/06:00pm 24.2 19.6 -1.3 18 11.6 NNW 13 17 7 9 1016.1 1015.0 -
20/05:30pm 25.8 21.2 -1.2 17 12.5 NW 13 19 7 10 1015.8 1014.7 -
20/05:00pm 26.6 21.2 -1.3 16 13.0 NW 17 24 9 13 1015.4 1014.4 -
20/04:30pm 27.0 23.2 -0.9 16 13.1 NW 9 22 5 12 1015.3 1014.3 -
20/04:00pm 27.0 21.6 -1.6 15 13.3 N 17 22 9 12 1015.3 1014.3 -
20/03:30pm 27.5 23.3 -1.0 15 13.4 WNW 11 22 6 12 1015.4 1014.4 -
20/03:00pm 26.9 21.5 -1.5 15 13.2 NNW 17 30 9 16 1015.5 1014.5 -
20/02:30pm 27.5 22.1 -1.6 15 13.5 N 17 26 9 14 1015.7 1014.6 -
20/02:00pm 26.3 22.5 -0.9 16 12.7 N 9 20 5 11 1016.0 1014.9 -
20/01:30pm 26.3 22.1 -0.8 17 12.7 N 11 20 6 11 1016.3 1015.2 -
20/01:00pm 26.4 22.2 -1.2 16 12.8 NNW 11 19 6 10 1017.0 1016.0 -
20/12:30pm 25.7 19.6 -2.2 16 12.7 N 20 26 11 14 1017.7 1016.7 -
20/12:00pm 24.7 21.6 1.4 21 11.2 E 7 19 4 10 1018.2 1017.1 -
20/11:30am 24.4 21.0 2.1 23 10.9 ESE 9 15 5 8 1018.7 1017.7 0.0
20/11:00am 23.7 20.0 2.5 25 10.3 SE 11 28 6 15 1019.2 1018.2 0.0
20/10:30am 23.2 18.8 2.6 26 10.0 SE 15 22 8 12 1019.5 1018.5 0.0
20/10:00am 21.7 17.7 2.7 28 9.2 SE 13 22 7 12 1019.7 1018.7 0.0
20/09:30am 20.7 17.1 3.1 31 8.5 SSE 11 19 6 10 1019.9 1018.9 0.0
20/09:00am 19.5 15.5 2.9 33 7.9 SSE 13 19 7 10 1019.8 1018.8 0.0
20/08:30am 17.9 14.2 2.5 35 7.2 S 11 17 6 9 1019.6 - 0.0
20/08:00am 16.4 13.4 2.1 38 6.5 S 7 17 4 9 1019.5 1018.5 0.0
20/07:30am 14.5 12.3 1.1 40 5.9 WSW 2 4 1 2 1019.2 - 0.0
20/07:00am 12.2 10.0 1.1 46 4.8 W 2 4 1 2 1019.1 1018.1 0.0
20/06:30am 10.7 8.4 0.5 49 4.3 SW 2 4 1 2 1018.7 - 0.0
20/06:00am 12.3 9.5 -0.2 42 5.2 WSW 4 6 2 3 1018.6 1017.6 0.0
20/05:30am 11.9 8.7 -0.5 42 5.2 WSW 6 6 3 3 1018.1 - 0.0
20/05:00am 12.2 8.7 -1.0 40 5.4 W 7 9 4 5 1017.9 1016.9 0.0
20/04:30am 12.1 8.7 -0.7 41 5.3 WNW 7 9 4 5 1017.6 - 0.0
20/04:00am 12.5 9.1 -0.9 39 5.5 NW 7 11 4 6 1017.6 1016.6 0.0
20/03:30am 12.9 9.1 -1.1 38 5.8 W 9 11 5 6 1017.6 - 0.0
20/03:00am 12.0 8.8 -0.7 41 5.3 NNW 6 7 3 4 1017.3 1016.3 0.0
20/02:30am 12.1 9.2 -0.9 40 5.4 NNE 4 6 2 3 1017.4 - 0.0
20/02:00am 12.0 9.1 -1.0 40 5.3 NNE 4 4 2 2 1017.5 1016.5 0.0
20/01:30am 12.6 9.3 -1.3 38 5.7 N 6 7 3 4 1017.7 - 0.0
20/01:00am 14.1 11.1 -1.9 33 6.6 NW 4 7 2 4 1018.2 1017.1 0.0
20/12:30am 14.9 10.6 -2.0 31 7.0 NNW 11 13 6 7 1017.9 - 0.0
20/12:00am 15.7 12.1 -2.2 29 7.4 WNW 7 7 4 4 1018.4 1017.3 0.0
 
Date/Time
WST
Temp
°C
App
Temp
°C
Dew
Point
Rel
Hum
%
Delta-T
°C
Wind Press
QNH
hPa
Press
MSL
hPa
Rain
since 9 am
mm
Dir
 
Spd
km/h
Gust
km/h
Spd
kts
Gust
kts
19/11:30pm 16.2 11.8 -2.2 28 7.7 W 11 17 6 9 1018.6 - 0.0
19/11:00pm 16.9 11.7 -2.8 26 8.2 SW 15 24 8 13 1018.6 1017.6 0.0
19/10:30pm 17.7 13.3 -2.7 25 8.6 N 11 13 6 7 1018.3 - 0.0
19/10:00pm 18.6 13.7 -3.0 23 9.1 N 13 15 7 8 1018.3 1017.2 0.0
19/09:30pm 18.8 13.6 -2.8 23 9.1 N 15 17 8 9 1018.5 - 0.0
19/09:00pm 18.8 14.0 -2.4 23 9.0 N 13 15 7 8 1018.4 1017.3 0.0
19/08:30pm 19.4 14.6 -2.5 22 9.4 N 13 17 7 9 1018.3 - 0.0
19/08:00pm 20.0 14.4 -2.5 22 9.7 N 17 19 9 10 1018.1 1017.0 0.0
19/07:30pm 20.6 15.4 -2.6 21 10.0 N 15 17 8 9 1017.8 - 0.0
19/07:00pm 21.1 16.3 -2.6 20 10.3 N 13 15 7 8 1017.6 1016.6 0.0
19/06:30pm 21.5 17.1 -2.5 20 10.5 N 11 13 6 7 1017.5 - 0.0
19/06:00pm 24.1 20.4 -3.3 16 12.0 NNW 7 9 4 5 1017.1 1016.1 0.0
19/05:30pm 25.9 22.2 -4.1 13 13.2 WNW 6 7 3 4 1017.1 - 0.0
19/05:00pm 26.2 22.5 -4.4 13 13.4 W 6 15 3 8 1017.1 1016.1 0.0
19/04:30pm 26.4 22.5 -4.2 13 13.5 W 7 13 4 7 1017.0 - 0.0
19/04:00pm 26.8 21.8 -4.4 12 13.7 WNW 13 20 7 11 1017.0 1016.0 0.0
19/03:30pm 26.5 22.9 -4.0 13 13.5 N 6 11 3 6 1017.0 - 0.0
19/03:00pm 27.0 21.7 -3.8 13 13.7 WNW 15 22 8 12 1017.1 1016.1 0.0
19/02:30pm 25.9 21.7 -4.0 13 13.2 WSW 9 20 5 11 1017.3 - 0.0
19/02:00pm 26.2 22.0 -3.8 13 13.3 W 9 22 5 12 1017.6 1016.6 0.0
19/01:30pm 25.9 20.9 -4.0 13 13.2 W 13 22 7 12 1017.9 - 0.0
19/01:00pm 26.0 22.3 -4.2 13 13.2 NNW 6 9 3 5 1018.3 1017.2 0.0
19/12:30pm 25.4 20.8 -3.8 14 12.8 NW 11 20 6 11 1018.9 - 0.0
19/12:00pm 25.4 20.8 -3.7 14 12.8 WNW 11 19 6 10 1019.4 1018.4 0.0
19/11:30am 24.3 20.1 -3.8 15 12.2 NW 9 19 5 10 1019.8 - 0.0
19/11:00am 24.4 20.3 -3.4 15 12.2 NNW 9 17 5 9 1020.2 1019.2 0.0
19/10:30am 23.3 19.6 -3.2 17 11.6 W 7 19 4 10 1020.6 - 0.0
19/10:00am 22.9 19.2 -2.8 18 11.2 N 7 13 4 7 1021.0 1020.0 0.0
19/09:30am 22.0 17.5 -3.2 18 10.9 N 11 19 6 10 1021.2 - 0.0
19/09:00am 20.6 17.5 -2.3 21 9.9 NW 4 6 2 3 1021.2 1020.2 0.0
19/08:30am 19.0 16.5 -1.2 25 8.8 SE 2 4 1 2 1021.4 - 0.0
19/08:00am 16.5 13.9 -1.5 29 7.6 N 2 4 1 2 1021.2 1020.2 0.0
19/07:30am 12.8 9.9 -1.1 38 5.8 NE 4 7 2 4 1021.0 - 0.0
19/07:00am 9.7 6.5 -0.7 48 4.2 NNE 6 6 3 3 1020.7 1019.7 0.0
19/06:30am 7.9 4.4 -1.1 53 3.5 N 7 7 4 4 1020.6 - 0.0
19/06:00am 8.3 5.4 -1.2 51 3.7 N 4 6 2 3 1020.2 1019.2 0.0
19/05:30am 8.4 5.9 -1.3 50 3.8 NE 2 6 1 3 1019.9 - 0.0
19/05:00am 8.9 5.9 -1.5 48 4.1 NNE 4 6 2 3 1019.6 1018.6 0.0
19/04:30am 9.5 6.9 -1.7 45 4.4 E 2 4 1 2 1019.5 - 0.0
19/04:00am 10.8 7.4 -1.9 41 5.0 NW 6 13 3 7 1019.4 1018.4 0.0
19/03:30am 10.9 7.5 -2.0 40 5.1 WNW 6 6 3 3 1019.5 - 0.0
19/03:00am 11.2 7.8 -2.3 39 5.3 W 6 7 3 4 1019.6 1018.6 0.0
19/02:30am 10.7 7.0 -2.6 39 5.2 SSW 7 9 4 5 1019.7 - 0.0
19/02:00am 12.3 9.2 -2.7 35 5.9 WSW 4 6 2 3 1019.6 1018.6 0.0
19/01:30am 15.1 11.0 -2.9 29 7.3 N 9 13 5 7 1019.7 - 0.0
19/01:00am 14.7 9.9 -2.8 30 7.1 N 13 15 7 8 1020.0 1019.0 0.0
19/12:30am 13.3 9.7 -2.4 33 6.3 N 7 9 4 5 1020.3 - 0.0
19/12:00am 14.1 11.0 -2.6 31 6.8 N 4 7 2 4 1020.6 1019.6 0.0
 
Date/Time
WST
Temp
°C
App
Temp
°C
Dew
Point
Rel
Hum
%
Delta-T
°C
Wind Press
QNH
hPa
Press
MSL
hPa
Rain
since 9 am
mm
Dir
 
Spd
km/h
Gust
km/h
Spd
kts
Gust
kts
18/11:30pm 15.5 11.0 -3.0 28 7.5 NNE 11 13 6 7 1020.7 - 0.0
18/11:00pm 14.8 11.7 -2.5 30 7.1 N 4 6 2 3 1020.9 1019.9 0.0
18/10:30pm 15.0 11.5 -2.9 29 7.3 N 6 11 3 6 1020.8 - 0.0
18/10:00pm 14.7 12.0 -2.5 30 7.0 NE 2 6 1 3 1020.7 1019.7 0.0
18/09:30pm 16.6 12.9 -3.0 26 8.1 NNE 7 11 4 6 1020.7 - 0.0
18/09:00pm 17.2 13.5 -3.1 25 8.4 NNE 7 9 4 5 1020.7 1019.7 0.0
18/08:30pm 16.7 13.2 -2.8 26 8.1 NNE 6 7 3 4 1020.6 - 0.0
18/08:00pm 18.4 14.6 -3.9 21 9.2 NNE 7 9 4 5 1020.2 1019.2 0.0
18/07:30pm 18.8 15.0 -3.9 21 9.4 NE 7 11 4 6 1019.9 - 0.0
18/07:00pm 19.2 16.0 -3.1 22 9.4 NE 4 7 2 4 1019.4 1018.4 0.0
18/06:30pm 21.1 17.9 -3.9 18 10.6 ESE 4 6 2 3 1019.2 - 0.0
18/06:00pm 23.0 19.2 -5.5 14 11.9 ESE 6 6 3 3 1019.1 1018.1 0.0
18/05:30pm 23.8 20.0 -5.7 13 12.3 E 6 9 3 5 1018.8 - 0.0
18/05:00pm 24.0 20.5 -5.8 13 12.4 E 4 9 2 5 1018.7 1017.7 0.0
18/04:30pm 24.5 20.5 -5.5 13 12.7 E 7 15 4 8 1018.4 - 0.0

Other Formats:

Comma delimited format used in spreadsheet applications
http://www.bom.gov.au/fwo/IDW60801/IDW60801.99737.axf

JavaScript Object Notation format (JSON) in row-major order
http://www.bom.gov.au/fwo/IDW60801/IDW60801.99737.json